createdAt,value
2023-04-25T00:01:16.264Z,12.43
2023-04-25T00:03:45.433Z,10.77
2023-04-25T00:06:16.515Z,9.97
2023-04-25T00:08:45.907Z,9.53
2023-04-25T00:11:14.868Z,10.30
2023-04-25T00:13:43.882Z,10.17
2023-04-25T00:16:14.629Z,9.83
2023-04-25T00:18:47.361Z,10.93
2023-04-25T00:21:19.222Z,10.20
2023-04-25T00:23:48.769Z,10.07
2023-04-25T00:26:18.140Z,10.10
2023-04-25T00:28:47.176Z,9.60
2023-04-25T00:31:16.263Z,10.00
2023-04-25T00:33:45.313Z,9.30
2023-04-25T00:36:14.182Z,9.57
2023-04-25T00:38:45.193Z,8.80
2023-04-25T00:41:14.583Z,8.70
2023-04-25T00:43:43.992Z,8.10
2023-04-25T00:46:13.800Z,8.70
2023-04-25T00:48:42.867Z,9.53
2023-04-25T00:51:16.586Z,7.10
2023-04-25T00:53:48.412Z,9.20
2023-04-25T00:56:18.829Z,8.03
2023-04-25T00:58:48.220Z,7.90
2023-04-25T01:01:18.170Z,8.80
2023-04-25T01:04:12.504Z,7.53
2023-04-25T01:06:42.230Z,7.93
2023-04-25T01:09:12.556Z,8.87
2023-04-25T01:11:41.966Z,9.00
2023-04-25T01:14:10.910Z,7.30
2023-04-25T01:16:40.237Z,8.40
2023-04-25T01:19:13.648Z,8.70
2023-04-25T01:21:44.073Z,9.20
2023-04-25T01:24:13.889Z,8.57
2023-04-25T01:26:50.856Z,8.40
2023-04-25T01:29:25.859Z,9.20
2023-04-25T01:31:56.365Z,9.47
2023-04-25T01:34:25.418Z,8.93
2023-04-25T01:36:56.563Z,8.60
2023-04-25T01:39:26.530Z,8.57
2023-04-25T01:41:57.294Z,10.17
2023-04-25T01:44:27.227Z,8.93
2023-04-25T01:46:57.145Z,10.00
2023-04-25T01:49:26.766Z,9.43
2023-04-25T01:51:57.225Z,9.10
2023-04-25T01:54:26.621Z,10.77
2023-04-25T01:56:56.019Z,10.00
2023-04-25T01:59:25.223Z,10.27
2023-04-25T02:02:18.581Z,9.97
2023-04-25T02:04:47.824Z,11.40
2023-04-25T02:07:18.610Z,11.20
2023-04-25T02:09:52.692Z,11.70
2023-04-25T02:12:23.015Z,10.80
2023-04-25T02:15:16.569Z,12.00
2023-04-25T02:17:55.068Z,10.67
2023-04-25T02:20:25.678Z,11.77
2023-04-25T02:22:56.146Z,11.43
2023-04-25T02:25:25.584Z,11.50
2023-04-25T02:27:55.158Z,12.10
2023-04-25T02:30:24.233Z,12.40
2023-04-25T02:32:53.257Z,12.13
2023-04-25T02:35:22.563Z,13.00
2023-04-25T02:37:51.644Z,12.00
2023-04-25T02:40:22.170Z,12.40
2023-04-25T02:42:51.878Z,11.50
2023-04-25T02:45:21.655Z,11.83
2023-04-25T02:47:50.827Z,11.67
2023-04-25T02:50:22.090Z,11.17
2023-04-25T02:52:51.033Z,10.90
2023-04-25T02:55:28.519Z,11.50
2023-04-25T02:57:59.347Z,10.80
2023-04-25T03:00:45.181Z,11.10
2023-04-25T03:03:14.588Z,13.33
2023-04-25T03:05:43.843Z,10.83
2023-04-25T03:08:13.141Z,11.70
2023-04-25T03:10:43.789Z,11.47
2023-04-25T03:13:13.592Z,13.80
2023-04-25T03:15:44.721Z,13.23
2023-04-25T03:18:14.145Z,12.20
2023-04-25T03:20:44.067Z,12.60
2023-04-25T03:23:13.040Z,12.33
2023-04-25T03:25:46.115Z,12.27
2023-04-25T03:28:15.445Z,12.43
2023-04-25T03:30:44.443Z,11.73
2023-04-25T03:33:13.716Z,11.50
2023-04-25T03:35:43.752Z,11.67
2023-04-25T03:38:13.541Z,12.60
2023-04-25T03:40:43.399Z,12.60
2023-04-25T03:43:27.092Z,12.13
2023-04-25T03:46:04.719Z,11.00
2023-04-25T03:48:33.749Z,11.43
2023-04-25T03:51:02.786Z,11.30
2023-04-25T03:53:33.944Z,11.10
2023-04-25T03:56:18.677Z,11.30
2023-04-25T03:58:51.400Z,10.50
2023-04-25T04:01:47.639Z,10.80
2023-04-25T04:04:17.398Z,11.73
2023-04-25T04:06:47.064Z,11.90
2023-04-25T04:09:28.811Z,12.03
2023-04-25T04:11:59.528Z,13.17
2023-04-25T04:14:31.199Z,12.90
2023-04-25T04:17:00.544Z,12.30
2023-04-25T04:19:31.016Z,13.40
2023-04-25T04:22:12.706Z,13.13
2023-04-25T04:24:45.111Z,13.80
2023-04-25T04:27:16.672Z,13.60
2023-04-25T04:30:11.146Z,14.40
2023-04-25T04:32:50.868Z,14.80
2023-04-25T04:35:20.624Z,14.60
2023-04-25T04:37:49.514Z,13.60
2023-04-25T04:40:21.777Z,14.83
2023-04-25T04:42:59.116Z,15.13
2023-04-25T04:45:48.845Z,14.33
2023-04-25T04:48:26.906Z,15.90
2023-04-25T04:51:14.659Z,16.27
2023-04-25T04:54:09.734Z,15.70
2023-04-25T04:56:47.845Z,14.90
2023-04-25T04:59:19.729Z,14.90
2023-04-25T05:02:11.969Z,14.63
2023-04-25T05:04:55.597Z,14.33
2023-04-25T05:07:54.012Z,15.03
2023-04-25T05:10:46.313Z,15.13
2023-04-25T05:13:34.759Z,15.90
2023-04-25T05:16:17.832Z,14.00
2023-04-25T05:19:02.280Z,15.20
2023-04-25T05:21:47.902Z,15.60
2023-04-25T05:24:40.452Z,15.03
2023-04-25T05:27:28.764Z,14.70
2023-04-25T05:30:27.235Z,14.97
2023-04-25T05:33:25.767Z,15.47
2023-04-25T05:35:56.329Z,14.90
2023-04-25T05:38:27.163Z,14.17
2023-04-25T05:41:15.339Z,15.37
2023-04-25T05:43:51.029Z,17.30
2023-04-25T05:46:38.617Z,16.27
2023-04-25T05:49:23.626Z,14.90
2023-04-25T05:52:02.866Z,15.63
2023-04-25T05:54:58.361Z,17.37
2023-04-25T05:57:29.300Z,18.23
2023-04-25T05:59:59.465Z,16.47
2023-04-25T06:02:42.539Z,17.10
2023-04-25T06:05:14.510Z,16.80
2023-04-25T06:07:45.802Z,16.53
2023-04-25T06:10:14.920Z,17.33
2023-04-25T06:12:45.508Z,16.67
2023-04-25T06:15:27.909Z,18.37
2023-04-25T06:17:58.454Z,18.07
2023-04-25T06:20:27.609Z,17.93
2023-04-25T06:23:01.014Z,17.33
2023-04-25T06:25:57.062Z,18.17
2023-04-25T06:28:27.093Z,18.43
2023-04-25T06:30:56.113Z,17.40
2023-04-25T06:33:25.583Z,17.10
2023-04-25T06:35:56.746Z,19.13
2023-04-25T06:38:30.585Z,18.40
2023-04-25T06:41:00.292Z,16.63
2023-04-25T06:43:34.716Z,18.63
2023-04-25T06:46:22.249Z,16.57
2023-04-25T06:48:52.878Z,16.00
2023-04-25T06:51:24.333Z,16.60
2023-04-25T06:53:57.742Z,17.57
2023-04-25T06:56:40.562Z,16.73
2023-04-25T06:59:17.329Z,16.10
2023-04-25T07:01:48.627Z,16.90
2023-04-25T07:04:21.257Z,17.80
2023-04-25T07:06:57.536Z,16.80
2023-04-25T07:09:36.223Z,17.27
2023-04-25T07:12:05.874Z,18.17
2023-04-25T07:14:36.319Z,18.77
2023-04-25T07:17:07.877Z,17.60
2023-04-25T07:19:39.226Z,19.77
2023-04-25T07:22:08.977Z,17.00
2023-04-25T07:24:42.577Z,18.10
2023-04-25T07:27:15.580Z,17.00
2023-04-25T07:30:14.823Z,18.13
2023-04-25T07:32:44.138Z,21.13
2023-04-25T07:35:13.590Z,18.57
2023-04-25T07:37:43.367Z,18.00
2023-04-25T07:40:19.959Z,19.83
2023-04-25T07:42:53.101Z,20.77
2023-04-25T07:45:31.967Z,19.90
2023-04-25T07:48:01.455Z,19.00
2023-04-25T07:50:32.746Z,19.83
2023-04-25T07:53:01.797Z,19.80
2023-04-25T07:55:41.306Z,20.10
2023-04-25T07:58:16.523Z,21.07
2023-04-25T08:00:48.463Z,21.40
2023-04-25T08:03:32.327Z,20.37
2023-04-25T08:06:05.694Z,22.47
2023-04-25T08:08:43.165Z,19.27
2023-04-25T08:11:17.269Z,20.13
2023-04-25T08:13:46.403Z,19.13
2023-04-25T08:16:15.770Z,19.67
2023-04-25T08:18:45.080Z,20.27
2023-04-25T08:21:15.565Z,20.93
2023-04-25T08:23:44.695Z,18.40
2023-04-25T08:26:27.101Z,19.50
2023-04-25T08:28:56.883Z,18.63
2023-04-25T08:31:26.454Z,19.40
2023-04-25T08:34:00.750Z,18.63
2023-04-25T08:36:39.707Z,19.93
2023-04-25T08:39:30.078Z,21.10
2023-04-25T08:42:25.799Z,21.13
2023-04-25T08:44:56.684Z,21.70
2023-04-25T08:47:32.893Z,19.37
2023-04-25T08:50:04.496Z,17.83
2023-04-25T08:52:38.656Z,18.20
2023-04-25T08:55:12.073Z,17.90
2023-04-25T08:57:45.187Z,18.47
2023-04-25T09:00:15.664Z,17.47
2023-04-25T09:02:46.953Z,17.80
2023-04-25T09:05:17.031Z,18.50
2023-04-25T09:07:49.198Z,18.97
2023-04-25T09:10:20.764Z,16.87
2023-04-25T09:13:07.137Z,18.50
2023-04-25T09:15:53.597Z,15.87
2023-04-25T09:18:48.363Z,17.20
2023-04-25T09:21:18.234Z,17.07
2023-04-25T09:23:53.310Z,16.70
2023-04-25T09:26:24.096Z,18.20
2023-04-25T09:29:08.631Z,19.80
2023-04-25T09:31:41.757Z,15.03
2023-04-25T09:34:17.116Z,15.00
2023-04-25T09:36:53.162Z,17.90
2023-04-25T09:39:43.185Z,16.97
2023-04-25T09:42:17.563Z,20.47
2023-04-25T09:44:49.550Z,18.30
2023-04-25T09:47:19.191Z,17.40
2023-04-25T09:49:48.502Z,17.17
2023-04-25T09:52:19.552Z,16.40
2023-04-25T09:54:58.410Z,19.10
2023-04-25T09:57:33.391Z,19.10
2023-04-25T10:00:10.919Z,17.03
2023-04-25T10:02:48.579Z,17.43
2023-04-25T10:05:47.022Z,16.80
2023-04-25T10:08:17.728Z,15.80
2023-04-25T10:10:48.124Z,15.80
2023-04-25T10:13:17.612Z,16.17
2023-04-25T10:15:49.895Z,15.30
2023-04-25T10:18:21.038Z,16.20
2023-04-25T10:20:50.695Z,15.87
2023-04-25T10:23:21.085Z,14.37
2023-04-25T10:25:52.137Z,14.23
2023-04-25T10:28:22.026Z,11.57
2023-04-25T10:31:04.082Z,11.13
2023-04-25T10:33:36.544Z,11.77
2023-04-25T10:36:14.055Z,10.97
2023-04-25T10:38:45.118Z,11.40
2023-04-25T10:41:15.268Z,10.60
2023-04-25T10:43:45.572Z,12.30
2023-04-25T10:46:25.037Z,11.67
2023-04-25T10:48:55.534Z,10.77
2023-04-25T10:51:26.505Z,9.03
2023-04-25T10:54:03.618Z,11.67
2023-04-25T10:56:34.374Z,10.60
2023-04-25T10:59:10.713Z,10.80
2023-04-25T11:21:34.117Z,11.73
2023-04-25T11:24:03.996Z,9.70
2023-04-25T11:26:33.204Z,10.63
2023-04-25T11:29:02.945Z,10.23
2023-04-25T11:31:32.335Z,8.00
2023-04-25T11:34:03.873Z,13.33
2023-04-25T11:36:33.473Z,9.57
2023-04-25T11:39:03.033Z,12.00
2023-04-25T11:41:33.351Z,8.23
2023-04-25T11:44:02.344Z,7.40
2023-04-25T11:46:31.486Z,8.23
2023-04-25T11:49:00.784Z,7.10
2023-04-25T11:51:31.482Z,7.23
2023-04-25T11:54:00.678Z,9.63
2023-04-25T11:56:29.855Z,9.90
2023-04-25T11:59:00.722Z,9.73
2023-04-25T12:01:44.741Z,9.90
2023-04-25T12:04:15.532Z,7.60
2023-04-25T12:06:49.152Z,9.50
2023-04-25T12:09:20.370Z,8.37
2023-04-25T12:11:50.388Z,8.43
2023-04-25T12:14:28.273Z,9.17
2023-04-25T12:16:59.609Z,8.63
2023-04-25T12:19:34.082Z,8.40
2023-04-25T12:22:05.319Z,8.60
2023-04-25T12:24:39.104Z,7.77
2023-04-25T12:27:10.223Z,7.40
2023-04-25T12:29:49.592Z,8.93
2023-04-25T12:32:20.016Z,8.57
2023-04-25T12:34:49.243Z,9.23
2023-04-25T12:37:20.053Z,10.10
2023-04-25T12:39:49.499Z,9.57
2023-04-25T12:42:18.767Z,9.40
2023-04-25T12:44:48.450Z,9.47
2023-04-25T12:47:17.418Z,8.80
2023-04-25T12:49:46.645Z,8.87
2023-04-25T12:52:15.658Z,7.93
2023-04-25T12:54:46.410Z,8.10
2023-04-25T12:57:15.513Z,13.37
2023-04-25T12:59:44.570Z,8.57
2023-04-25T13:02:13.756Z,11.13
2023-04-25T13:04:43.057Z,11.50
2023-04-25T13:07:12.215Z,13.10
2023-04-25T13:09:41.452Z,11.37
2023-04-25T13:12:12.222Z,11.30
2023-04-25T13:14:41.269Z,8.80
2023-04-25T13:17:10.617Z,10.53
2023-04-25T13:19:40.081Z,11.20
2023-04-25T13:22:09.064Z,9.07
2023-04-25T13:24:38.383Z,9.37
2023-04-25T13:27:07.355Z,10.83
2023-04-25T13:29:39.641Z,12.17
2023-04-25T13:32:08.896Z,8.60
2023-04-25T13:34:37.662Z,8.27
2023-04-25T13:37:07.641Z,7.67
2023-04-25T13:39:36.457Z,7.80
2023-04-25T13:42:06.200Z,8.13
2023-04-25T13:44:35.183Z,11.40
2023-04-25T13:47:06.571Z,8.50
2023-04-25T13:49:35.910Z,6.60
2023-04-25T13:52:05.070Z,7.90
2023-04-25T13:54:34.625Z,8.30
2023-04-25T13:57:03.884Z,9.97
2023-04-25T13:59:33.177Z,8.20
2023-04-25T14:02:02.536Z,7.10
2023-04-25T14:04:34.069Z,7.00
2023-04-25T14:07:03.727Z,6.97
2023-04-25T14:09:33.044Z,6.80
2023-04-25T14:12:03.249Z,7.80
2023-04-25T14:14:32.316Z,6.20
2023-04-25T14:17:01.605Z,5.80
2023-04-25T14:19:31.000Z,6.90
2023-04-25T14:22:01.785Z,8.17
2023-04-25T14:24:30.770Z,7.63
2023-04-25T14:26:59.885Z,8.47
2023-04-25T14:29:31.283Z,6.70
2023-04-25T14:32:01.244Z,10.13
2023-04-25T14:34:30.445Z,8.03
2023-04-25T14:37:01.594Z,9.23
2023-04-25T14:39:30.833Z,10.00
2023-04-25T14:42:00.229Z,8.63
2023-04-25T14:44:29.410Z,10.70
2023-04-25T14:46:59.699Z,9.20
2023-04-25T14:49:29.563Z,10.07
2023-04-25T14:51:59.126Z,10.13
2023-04-25T14:54:29.746Z,10.30
2023-04-25T14:56:59.310Z,8.53
2023-04-25T14:59:29.260Z,8.97
2023-04-25T15:01:59.895Z,10.10
2023-04-25T15:04:29.290Z,9.30
2023-04-25T15:06:58.699Z,9.63
2023-04-25T15:09:29.726Z,9.10
2023-04-25T15:12:00.044Z,8.77
2023-04-25T15:14:29.200Z,8.43
2023-04-25T15:16:58.925Z,10.93
2023-04-25T15:19:29.368Z,10.27
2023-04-25T15:22:01.628Z,11.20
2023-04-25T15:24:32.543Z,11.47
2023-04-25T15:27:01.853Z,11.67
2023-04-25T15:29:31.279Z,10.67
2023-04-25T15:32:00.376Z,12.40
2023-04-25T15:34:29.289Z,13.33
2023-04-25T15:36:58.953Z,12.03
2023-04-25T15:39:28.104Z,10.67
2023-04-25T15:41:59.243Z,10.97
2023-04-25T15:44:28.853Z,11.07
2023-04-25T15:46:57.944Z,10.27
2023-04-25T15:49:27.359Z,11.20
2023-04-25T15:51:56.456Z,11.00
2023-04-25T15:54:25.648Z,10.83
2023-04-25T15:56:54.586Z,10.23
2023-04-25T15:59:25.565Z,10.00
2023-04-25T16:01:54.874Z,12.80
2023-04-25T16:04:25.531Z,9.60
2023-04-25T16:06:54.809Z,8.80
2023-04-25T16:09:23.952Z,10.17
2023-04-25T16:11:53.236Z,11.73
2023-04-25T16:14:22.449Z,14.20
2023-04-25T16:16:53.551Z,8.87
2023-04-25T16:19:23.406Z,9.60
2023-04-25T16:21:52.768Z,8.80
2023-04-25T16:24:22.251Z,8.30
2023-04-25T16:26:54.268Z,7.50
2023-04-25T16:29:23.586Z,8.17
2023-04-25T16:31:54.297Z,8.33
2023-04-25T16:34:23.655Z,8.73
2023-04-25T16:36:54.467Z,8.50
2023-04-25T16:39:25.263Z,9.53
2023-04-25T16:41:54.574Z,9.70
2023-04-25T16:44:23.529Z,9.03
2023-04-25T16:46:53.865Z,8.70
2023-04-25T16:49:23.279Z,8.57
2023-04-25T16:51:52.364Z,8.17
2023-04-25T16:54:21.750Z,8.53
2023-04-25T16:56:51.064Z,9.80
2023-04-25T16:59:20.726Z,9.87
2023-04-25T17:01:50.163Z,9.87
2023-04-25T17:04:21.382Z,8.63
2023-04-25T17:06:50.600Z,7.07
2023-04-25T17:09:19.772Z,7.80
2023-04-25T17:11:50.165Z,6.50
2023-04-25T17:14:19.498Z,6.20
2023-04-25T17:16:49.798Z,6.33
2023-04-25T17:19:22.116Z,7.43
2023-04-25T17:21:51.985Z,6.20
2023-04-25T17:24:22.142Z,10.67
2023-04-25T17:26:51.542Z,5.80
2023-04-25T17:29:21.849Z,5.70
2023-04-25T17:31:51.474Z,5.60
2023-04-25T17:34:22.455Z,6.13
2023-04-25T17:36:51.475Z,6.67
2023-04-25T17:39:21.657Z,6.40
2023-04-25T17:41:50.750Z,6.93
2023-04-25T17:44:20.580Z,6.70
2023-04-25T17:46:49.721Z,7.17
2023-04-25T17:49:18.823Z,8.40
2023-04-25T17:51:49.493Z,7.50
2023-04-25T17:54:18.784Z,7.97
2023-04-25T17:56:48.331Z,6.27
2023-04-25T17:59:17.524Z,7.13
2023-04-25T18:01:48.204Z,6.20
2023-04-25T18:04:17.816Z,8.83
2023-04-25T18:06:48.243Z,8.90
2023-04-25T18:09:17.780Z,9.83
2023-04-25T18:11:48.299Z,9.00
2023-04-25T18:14:17.897Z,8.10
2023-04-25T18:16:47.348Z,8.37
2023-04-25T18:19:21.540Z,9.97
2023-04-25T18:21:54.536Z,10.30
2023-04-25T18:24:27.260Z,9.60
2023-04-25T18:27:00.315Z,9.37
2023-04-25T18:29:33.726Z,10.53
2023-04-25T18:32:05.072Z,11.30
2023-04-25T18:34:34.925Z,10.57
2023-04-25T18:37:05.220Z,11.33
2023-04-25T18:39:34.658Z,11.93
2023-04-25T18:42:06.959Z,13.63
2023-04-25T18:44:40.206Z,12.30
2023-04-25T18:47:10.616Z,13.10
2023-04-25T18:49:39.602Z,11.23
2023-04-25T18:52:12.522Z,13.17
2023-04-25T18:54:42.637Z,13.50
2023-04-25T18:57:14.701Z,11.33
2023-04-25T18:59:45.655Z,11.50
2023-04-25T19:02:16.470Z,11.47
2023-04-25T19:04:47.042Z,11.83
2023-04-25T19:07:17.805Z,11.50
2023-04-25T19:09:47.183Z,10.80
2023-04-25T19:12:16.907Z,10.10
2023-04-25T19:14:46.122Z,14.07
2023-04-25T19:17:15.164Z,10.37
2023-04-25T19:19:44.277Z,8.97
2023-04-25T19:22:14.294Z,9.20
2023-04-25T19:24:44.674Z,8.73
2023-04-25T19:27:14.426Z,11.07
2023-04-25T19:29:48.404Z,11.10
2023-04-25T19:32:18.100Z,10.63
2023-04-25T19:34:48.434Z,10.50
2023-04-25T19:37:17.614Z,10.17
2023-04-25T19:39:48.663Z,10.97
2023-04-25T19:42:19.365Z,8.50
2023-04-25T19:44:48.617Z,8.17
2023-04-25T19:47:17.904Z,8.47
2023-04-25T19:49:47.549Z,10.30
2023-04-25T19:52:17.773Z,8.07
2023-04-25T19:54:48.504Z,8.33
2023-04-25T19:57:17.665Z,8.13
2023-04-25T19:59:48.245Z,8.80
2023-04-25T20:02:18.738Z,8.80
2023-04-25T20:04:47.810Z,6.00
2023-04-25T20:07:16.904Z,7.33
2023-04-25T20:09:45.785Z,6.53
2023-04-25T20:12:16.473Z,7.43
2023-04-25T20:14:45.821Z,6.40
2023-04-25T20:17:15.283Z,8.80
2023-04-25T20:19:44.377Z,4.63
2023-04-25T20:22:13.358Z,5.50
2023-04-25T20:24:42.681Z,5.30
2023-04-25T20:27:11.749Z,6.83
2023-04-25T20:29:42.839Z,7.67
2023-04-25T20:32:12.655Z,6.90
2023-04-25T20:34:42.321Z,6.93
2023-04-25T20:37:11.431Z,9.33
2023-04-25T20:39:40.349Z,6.87
2023-04-25T20:42:09.602Z,8.83
2023-04-25T20:44:40.876Z,6.07
2023-04-25T20:47:11.994Z,5.60
2023-04-25T20:49:40.906Z,5.80
2023-04-25T20:52:09.818Z,5.33
2023-04-25T20:54:39.081Z,4.90
2023-04-25T20:57:07.927Z,6.60
2023-04-25T20:59:37.517Z,6.63
2023-04-25T21:02:06.354Z,5.10
2023-04-25T21:04:36.702Z,5.63
2023-04-25T21:07:06.131Z,6.43
2023-04-25T21:09:35.043Z,6.00
2023-04-25T21:12:04.504Z,5.17
2023-04-25T21:14:34.277Z,5.70
2023-04-25T21:17:04.455Z,4.70
2023-04-25T21:19:34.212Z,4.60
2023-04-25T21:22:04.570Z,5.40
2023-04-25T21:24:34.899Z,6.03
2023-04-25T21:27:03.820Z,4.77
2023-04-25T21:29:33.160Z,5.27
2023-04-25T21:32:02.559Z,5.13
2023-04-25T21:34:32.142Z,5.10
2023-04-25T21:37:01.282Z,5.23
2023-04-25T21:39:31.755Z,5.27
2023-04-25T21:42:01.982Z,5.33
2023-04-25T21:44:31.334Z,4.60
2023-04-25T21:47:00.548Z,5.27
2023-04-25T21:49:29.964Z,4.93
2023-04-25T21:51:59.053Z,5.30
2023-04-25T21:54:28.193Z,5.07
2023-04-25T21:56:58.627Z,5.33
2023-04-25T21:59:27.614Z,5.93
2023-04-25T22:01:56.665Z,4.90
2023-04-25T22:04:25.839Z,5.60
2023-04-25T22:06:55.317Z,5.63
2023-04-25T22:09:24.681Z,4.83
2023-04-25T22:11:54.724Z,5.33
2023-04-25T22:14:26.858Z,4.97
2023-04-25T22:16:56.100Z,5.03
2023-04-25T22:19:25.031Z,4.73
2023-04-25T22:21:54.018Z,5.00
2023-04-25T22:24:23.004Z,4.30
2023-04-25T22:26:52.552Z,4.47
2023-04-25T22:29:22.087Z,4.77
2023-04-25T22:31:53.206Z,4.40
2023-04-25T22:34:22.512Z,5.20
2023-04-25T22:36:51.480Z,5.00
2023-04-25T22:39:20.610Z,4.40
2023-04-25T22:41:49.765Z,5.00
2023-04-25T22:44:18.859Z,4.70
2023-04-25T22:46:47.816Z,4.50
2023-04-25T22:49:18.734Z,4.73
2023-04-25T22:51:49.156Z,4.97
2023-04-25T22:54:18.444Z,4.20
2023-04-25T22:56:47.451Z,4.57
2023-04-25T22:59:16.355Z,5.00
2023-04-25T23:01:45.665Z,4.43
2023-04-25T23:04:16.851Z,4.33
2023-04-25T23:06:47.925Z,4.03
2023-04-25T23:09:17.426Z,4.40
2023-04-25T23:11:47.071Z,3.93
2023-04-25T23:14:16.495Z,4.40
2023-04-25T23:16:45.848Z,5.30
2023-04-25T23:19:14.996Z,4.53
2023-04-25T23:21:44.121Z,4.60
2023-04-25T23:24:14.977Z,4.33
2023-04-25T23:26:44.317Z,4.20
2023-04-25T23:29:13.105Z,4.67
2023-04-25T23:31:42.323Z,4.67
2023-04-25T23:34:11.381Z,4.03
2023-04-25T23:36:40.562Z,4.10
2023-04-25T23:39:10.701Z,4.00
2023-04-25T23:41:41.492Z,4.10
2023-04-25T23:44:10.951Z,4.20
2023-04-25T23:46:40.162Z,4.10
2023-04-25T23:49:09.968Z,3.70
2023-04-25T23:51:38.716Z,3.50
2023-04-25T23:54:08.456Z,3.50
2023-04-25T23:56:37.425Z,3.40
2023-04-25T23:59:09.137Z,3.80
